Dupont, LA (71329)

12:14 PM CDT on July 13, 2014 (GMT -0500)
APO - Cottonport (KLACOTTO2) Elev 66 ft | 30.98 °N, 92.06 °W | Change Station

Current weather conditions updated 6 seconds ago

Mostly Cloudy
Mostly Cloudy
90.9 °F
Feels Like 98 °F
N
2.7
Wind Variable Wind from SW
Gusts 3.2 mph

Today is forecast to be Cooler than yesterday.

Today
High -- | Low -- °F
--% Chance of Precip.
Yesterday
High -- | Low -- °F
Precip. -- in
6:13 AM 8:13 PM
Full, 98% visible
Pressure 30.10 in
Visibility 10.0 miles
Clouds Mostly Cloudy 3600 ft
Heat Index 98 °F
Dew Point 72 °F
Humidity 53%
Rainfall 0.00 in
Snow Depth Not available.
UV 7 out of 12
Pollen 3.00 out of 12
Air Quality Not available.
Flu Activity Sporadic
METAR KOPL 131655Z AUTO 00000KT 10SM BKN036 31/23 A3010 RMK AO2 T03060234

More Conditions Fewer Conditions

Pressure 30.10 in
Visibility 10.0 miles
Clouds Mostly Cloudy 3600 ft
Heat Index 98 °F
Dew Point 72 °F
Humidity 53%
Rainfall 0.00 in
Snow Depth Not available.
UV 7 out of 12
Pollen 3.00 out of 12
Air Quality Not available.
Flu Activity Sporadic
METAR KOPL 131655Z AUTO 00000KT 10SM BKN036 31/23 A3010 RMK AO2 T03060234

More Conditions Fewer Conditions

10-Day Weather Forecast

Almanac

Astronomy

Jul. 13, 2014 Rise Set
Actual Time 6:13 AM CDT 8:13 PM CDT
Civil Twilight 5:46 AM CDT 8:40 PM CDT
Nautical Twilight 5:13 AM CDT 9:13 PM CDT
Astronomical Twilight 4:38 AM CDT 9:48 PM CDT
Moon 9:12 PM CDT 7:35 AM CDT
Length of Visible Light 14h 53m
Length of Day
13h 59m
Tomorrow will be 0m 54s shorter.
Full, 98% of the Moon is Illuminated
Today
Full
Jul 18
Last Quarter
Jul 26
New
Aug 3
First Quarter
Aug 10
Full

Today's Extremes

State Highs State Lows

Community

WunderPhotos

Upload Photos

1,733,285 photos uploaded!

Nearby

Snow Depth

Station Depth Elevation
No new snow has been reported.

Earthquake Activity

City Distance Mag. Time & Date
No recent earthquake activity has been reported nearby.
Minimum magnitude displayed is 2.5.

Coastal Water Temperatures

Place Temperature
No Stations Reporting

Nearby Weather Stations

Station Location Temp. Heat Index Dew Point Humidity Wind Precip. Elev Updated Type
APO - Cottonport, Cottonport, LA 90.9 °F 98 °F 72 °F 53% SW  at  2.7 mph 0.00 in / hr 66 ft 12:14 PM CDT Rapid Fire
MesoWest ROSA , Rosa, LA 89 °F 86 °F - - North  at  - 0.00 in / hr 44 ft 11:15 AM CDT MADIS

Show More Stations Show Fewer Stations